Flight Track Log - Related Links

Times and Time Zones

All times are in EDT time to prevent confusion due to time zone crossing. See the AAL1326 flight status page for this flight to view local times or setup timezone preferences in your user account.

Time Position Orientation Groundspeed Altitude Reporting Facility
EDT Latitude Longitude Course Direction KTS MPH feet Rate Location/Type
Fri 06:58:00 PM 39.4590 -94.5024 41° Northeast  Level FlightAware Approximate
Fri 06:59:00 PM 39.5289 -94.4238 41° Northeast  Level FlightAware Approximate
Fri 06:59:03 PM 39.4390 -94.5840 41° Northeast 256 295 7,100  Level FlightAware ADS-B
Fri 06:59:33 PM 39.4660 -94.5470 47° Northeast 268 308 8,400 2,836 Climbing FlightAware ADS-B
Fri 06:59:58 PM 39.4880 -94.5170 46° Northeast 264 304 9,700 2,229 Climbing FlightAware ADS-B
Fri 07:00:43 PM 39.5270 -94.4640 46° Northeast 297 342 11,000 1,835 Climbing FlightAware ADS-B
Fri 07:01:23 PM 39.5670 -94.4080 47° Northeast 325 374 12,300 1,875 Climbing FlightAware ADS-B
Fri 07:02:03 PM 39.6120 -94.3500 45° Northeast 356 410 13,500 2,118 Climbing FlightAware ADS-B
Fri 07:02:48 PM 39.6690 -94.2820 43° Northeast 374 430 15,300 2,471 Climbing FlightAware ADS-B
Fri 07:03:28 PM 39.7220 -94.2210 42° Northeast 386 444 17,000 1,579 Climbing FlightAware ADS-B
Fri 07:04:23 PM 39.7920 -94.1470 39° Northeast 396 456 17,800 2,286 Climbing FlightAware ADS-B
Fri 07:05:13 PM 39.8740 -94.0600 39° Northeast 411 473 21,000 3,000 Climbing FlightAware ADS-B
Fri 07:06:03 PM 39.9470 -93.9870 37° Northeast 418 481 22,800 1,771 Climbing FlightAware ADS-B
Fri 07:06:58 PM 40.0280 -93.8890 43° Northeast 428 493 24,100 1,389 Climbing FlightAware ADS-B
Fri 07:07:38 PM 40.0780 -93.8120 50° Northeast 438 504 25,000 988 Climbing FlightAware ADS-B
Fri 07:08:23 PM 40.1390 -93.7210 49° Northeast 437 503 25,500 1,271 Climbing FlightAware ADS-B
Fri 07:09:03 PM 40.1920 -93.6440 48° Northeast 438 504 26,800 2,329 Climbing FlightAware ADS-B
Fri 07:09:48 PM 40.2540 -93.5550 48° Northeast 421 484 28,800 2,400 Climbing FlightAware ADS-B
Fri 07:10:28 PM 40.3060 -93.4800 48° Northeast 414 476 30,200 1,886 Climbing FlightAware ADS-B
Fri 07:10:58 PM 40.3320 -93.4160 62° Northeast 389 448 31,000 1,286 Climbing FlightAware ADS-B
Fri 07:11:38 PM 40.3460 -93.3260 78° East 383 441 31,700 1,200 Climbing FlightAware ADS-B
Fri 07:12:18 PM 40.3570 -93.2340 81° East 385 443 32,600 821 Climbing FlightAware ADS-B
Fri 07:13:13 PM 40.3710 -93.1100 82° East 384 442 33,000 240 Climbing FlightAware ADS-B
Fri 07:13:58 PM 40.3830 -93.0030 82° East 382 440 33,000  Level FlightAware ADS-B
Fri 07:14:38 PM 40.3920 -92.9200 82° East 381 438 33,000  Level FlightAware ADS-B
Fri 07:15:23 PM 40.4050 -92.8130 81° East 379 436 33,000  Level FlightAware ADS-B
Fri 07:15:58 PM 40.4130 -92.7370 82° East 379 436 33,000  Level FlightAware ADS-B
Fri 07:16:38 PM 40.4230 -92.6450 82° East 378 435 33,000  Level FlightAware ADS-B
Fri 07:17:28 PM 40.4360 -92.5270 82° East 377 434 33,000  Level FlightAware ADS-B
Fri 07:18:08 PM 40.4450 -92.4430 82° East 377 434 33,000  Level FlightAware ADS-B
Fri 07:18:48 PM 40.4550 -92.3560 81° East 378 435 33,000  Level FlightAware ADS-B
Fri 07:19:33 PM 40.4670 -92.2430 82° East 379 436 33,000  Level FlightAware ADS-B
Fri 07:20:08 PM 40.4750 -92.1650 82° East 380 437 33,000  Level FlightAware ADS-B
Fri 07:20:58 PM 40.4870 -92.0510 82° East 381 438 33,000  Level FlightAware ADS-B
Fri 07:21:38 PM 40.4970 -91.9580 82° East 382 440 33,000  Level FlightAware ADS-B
Fri 07:22:23 PM 40.5070 -91.8620 82° East 384 442 33,000  Level FlightAware ADS-B
Fri 07:23:03 PM 40.5170 -91.7650 82° East 401 461 33,000  Level FlightAware ADS-B
Fri 07:23:48 PM 40.5280 -91.6530 83° East 413 475 33,000  Level FlightAware ADS-B
Fri 07:24:23 PM 40.5380 -91.5610 82° East 414 476 33,000  Level FlightAware ADS-B
Fri 07:25:08 PM 40.5490 -91.4470 83° East 417 480 33,000  Level FlightAware ADS-B
Fri 07:25:53 PM 40.5730 -91.3470 72° East 433 498 33,000  Level FlightAware ADS-B
Fri 07:26:33 PM 40.6080 -91.2440 66° East 435 501 33,000  Level FlightAware ADS-B
Fri 07:27:18 PM 40.6450 -91.1360 66° East 435 501 33,000  Level FlightAware ADS-B
Fri 07:27:58 PM 40.6760 -91.0450 66° East 435 501 33,000  Level FlightAware ADS-B
Fri 07:28:38 PM 40.7110 -90.9430 66° East 435 501 33,000  Level FlightAware ADS-B
Fri 07:29:23 PM 40.7480 -90.8340 66° East 436 502 33,000  Level FlightAware ADS-B
Fri 07:30:03 PM 40.7800 -90.7400 66° East 436 502 33,000  Level FlightAware ADS-B
Fri 07:30:48 PM 40.8180 -90.6250 66° East 437 503 33,000  Level FlightAware ADS-B
Fri 07:31:28 PM 40.8510 -90.5280 66° East 420 483 33,000  Level FlightAware ADS-B
Fri 07:32:08 PM 40.8810 -90.4360 67° East 419 482 33,000  Level FlightAware ADS-B
Fri 07:32:53 PM 40.9170 -90.3280 66° East 419 482 33,000  Level FlightAware ADS-B
Fri 07:33:33 PM 40.9490 -90.2340 66° East 419 482 33,000  Level FlightAware ADS-B
Fri 07:34:13 PM 40.9770 -90.1490 66° East 420 483 33,000 -565 Level FlightAware ADS-B
Fri 07:34:58 PM 41.0120 -90.0420 67° East 419 482 32,200 -1,950 Descending FlightAware ADS-B
Fri 07:35:33 PM 41.0400 -89.9550 67° East 425 489 30,400 -2,905 Descending FlightAware ADS-B
Fri 07:36:33 PM 41.0880 -89.8100 66° East 427 491 27,600 -2,571 Descending FlightAware ADS-B
Fri 07:37:18 PM 41.1220 -89.7040 67° East 421 484 25,900 -2,259 Descending FlightAware ADS-B
Fri 07:37:58 PM 41.1530 -89.6100 66° East 415 478 24,400 -2,188 Descending FlightAware ADS-B
Fri 07:38:43 PM 41.1920 -89.5070 63° Northeast 407 468 22,800 -2,047 Descending FlightAware ADS-B
Fri 07:39:23 PM 41.2280 -89.4190 61° Northeast 400 460 21,500 -1,906 Descending FlightAware ADS-B
Fri 07:40:08 PM 41.2660 -89.3260 61° Northeast 395 455 20,100 -2,133 Descending FlightAware ADS-B
Fri 07:40:53 PM 41.3060 -89.2250 62° Northeast 395 455 18,300 -2,188 Descending FlightAware ADS-B
Fri 07:41:33 PM 41.3390 -89.1420 62° Northeast 369 425 17,000 -2,250 Descending FlightAware ADS-B
Fri 07:42:13 PM 41.3700 -89.0640 62° Northeast 365 420 15,300 -2,259 Descending FlightAware ADS-B
Fri 07:42:58 PM 41.4060 -88.9760 61° Northeast 355 409 13,800 -1,976 Descending FlightAware ADS-B
Fri 07:43:38 PM 41.4360 -88.9010 62° Northeast 346 398 12,500 -1,976 Descending FlightAware ADS-B
Fri 07:44:23 PM 41.4620 -88.8120 69° East 333 383 11,000 -1,129 Descending FlightAware ADS-B
Fri 07:45:03 PM 41.4680 -88.7360 84° East 287 330 10,900 -75 Descending FlightAware ADS-B
Fri 07:45:43 PM 41.4750 -88.6720 82° East 249 287 10,900 109 Level FlightAware ADS-B
Fri 07:45:58 PM 41.4820 -88.6520 65° Northeast 248 285 11,000 100 Climbing FlightAware ADS-B
Fri 07:46:43 PM 41.5160 -88.5980 50° Northeast 248 285 11,000  Level FlightAware ADS-B
Fri 07:47:23 PM 41.5450 -88.5520 50° Northeast 245 282 11,000 -75 Level FlightAware ADS-B
Fri 07:48:03 PM 41.5730 -88.5090 49° Northeast 213 245 10,900 -776 Descending FlightAware ADS-B
Fri 07:48:48 PM 41.6010 -88.4650 50° Northeast 210 242 9,900 -1,286 Descending FlightAware ADS-B
Fri 07:49:13 PM 41.6180 -88.4400 48° Northeast 210 242 9,400 -1,200 Descending FlightAware ADS-B
Fri 07:49:43 PM 41.6360 -88.4110 50° Northeast 208 239 8,800 -1,200 Descending FlightAware ADS-B
Fri 07:50:13 PM 41.6550 -88.3810 50° Northeast 207 238 8,200 -873 Descending FlightAware ADS-B
Fri 07:50:38 PM 41.6700 -88.3580 49° Northeast 207 238 8,000 -240 Descending FlightAware ADS-B
Fri 07:51:03 PM 41.6860 -88.3340 48° Northeast 205 236 8,000 -218 Level FlightAware ADS-B
Fri 07:51:33 PM 41.7080 -88.3090 40° Northeast 220 253 7,800 -750 Descending FlightAware ADS-B
Fri 07:51:43 PM 41.7190 -88.3070 North 226 260 7,500 -1,000 Descending FlightAware ADS-B
Fri 07:52:03 PM 41.7380 -88.3100 353° North 220 253 7,300 -600 Descending FlightAware ADS-B
Fri 07:52:33 PM 41.7680 -88.3140 354° North 207 238 7,000 -327 Descending FlightAware ADS-B
Fri 07:52:58 PM 41.7910 -88.3180 353° North 203 234 7,000  Level FlightAware ADS-B
Fri 07:53:28 PM 41.8200 -88.3220 354° North 204 235 7,000 -218 Level FlightAware ADS-B
Fri 07:53:53 PM 41.8410 -88.3250 354° North 204 235 6,800 -982 Descending FlightAware ADS-B
Fri 07:54:23 PM 41.8680 -88.3410 336° Northwest 207 238 6,100 -1,200 Descending FlightAware ADS-B
Fri 07:54:38 PM 41.8730 -88.3560 294° West 200 230 5,900 -300 Descending FlightAware ADS-B
Fri 07:55:03 PM 41.8790 -88.3890 284° West 200 230 5,900  Level FlightAware ADS-B
Fri 07:55:33 PM 41.8860 -88.4210 286° West 200 230 5,900  Level FlightAware ADS-B
Fri 07:56:03 PM 41.8900 -88.4620 277° West 194 223 5,900  Level FlightAware ADS-B
Fri 07:56:28 PM 41.8990 -88.4830 300° West 207 238 5,900  Level FlightAware ADS-B
Fri 07:56:43 PM 41.9170 -88.4900 344° North 204 235 5,900  Level FlightAware ADS-B
Fri 07:57:23 PM 41.9480 -88.4750 20° North 175 201 5,900 -257 Level FlightAware ADS-B
Fri 07:57:53 PM 41.9610 -88.4480 57° Northeast 173 199 5,600 -800 Descending FlightAware ADS-B
Fri 07:58:08 PM 41.9640 -88.4340 74° East 159 183 5,300 -1,050 Descending FlightAware ADS-B
Fri 07:58:33 PM 41.9670 -88.4090 81° East 155 178 4,900 -480 Descending FlightAware ADS-B
Fri 07:58:58 PM 41.9680 -88.3890 86° East 153 176 4,900  Level FlightAware ADS-B
Fri 07:59:33 PM 41.9670 -88.3520 92° East 154 177 4,900  Level FlightAware ADS-B
Fri 08:00:08 PM 41.9670 -88.3210 90° East 155 178 4,900  Level FlightAware ADS-B
Fri 08:00:38 PM 41.9680 -88.2910 87° East 155 178 4,900  Level FlightAware ADS-B
Fri 08:00:58 PM 41.9680 -88.2710 90° East 156 180 4,900  Level FlightAware ADS-B
Fri 08:01:38 PM 41.9680 -88.2320 90° East 154 177 4,900 -277 Level FlightAware ADS-B
Fri 08:02:03 PM 41.9680 -88.2070 90° East 153 176 4,600 -764 Descending FlightAware ADS-B
Fri 08:02:33 PM 41.9680 -88.1800 90° East 151 174 4,200 -764 Descending FlightAware ADS-B
Fri 08:02:58 PM 41.9680 -88.1580 90° East 150 173 3,900 -764 Descending FlightAware ADS-B
Fri 08:03:28 PM 41.9680 -88.1320 90° East 149 171 3,500 -800 Descending FlightAware ADS-B
Fri 08:03:58 PM 41.9690 -88.1010 88° East 145 167 3,100 -771 Descending FlightAware ADS-B
Fri 08:04:38 PM 41.9690 -88.0670 90° East 141 162 2,600 -675 Descending FlightAware ADS-B
Fri 08:05:18 PM 41.9690 -88.0360 90° East 139 160 2,200 -700 Descending FlightAware ADS-B
Fri 08:05:38 PM 41.9690 -88.0150 90° East 131 151 1,900 -800 Descending FlightAware ADS-B
Fri 08:06:33 PM 41.9690 -87.9700 90° East 136 157 1,200 -750 Descending FlightAware ADS-B
Fri 08:06:58 PM 41.9690 -87.9480 90° East 144 166 900 -655 Descending FlightAware ADS-B
Fri 08:07:28 PM 41.9690 -87.9220 90° East 139 160 600 -327 Descending FlightAware ADS-B
Fri 08:07:53 PM 41.9690 -87.9020 90° East 139 160 600  Level FlightAware ADS-B

Login

Don't have an account? Register now (free) for customized features, flight alerts, and more!